Terminal Aerodrome Forecast
Issued by NWS

Home | Current Version | Previous Version | Text Only | Print | Product List | Glossary On
Versions: 1 2 3 4 5 6 7 8 9 10 11 12 13 14 15 16 17 18 19 20 21
000
FTUS45 KTFX 282333
TAFCTB
TAF
KCTB 282333Z 2900/2924 VRB06KT P6SM VCSH SCT030 OVC045
     FM290500 VRB05KT P6SM VCFG SCT007 OVC012
     FM291500 15008KT P6SM SCT015 BKN025
     FM292000 12011KT P6SM OVC040=

USA.gov is the U.S. government's official web portal to all federal, state and local government web resources and services.